»·PEaware :: UAL2393 KTPA-KIAH

UAL2393 :: KTPA-KIAH

FLIGHT INFORMATION

Flight Status: Arrived
Operator:
United Airlines
More flights by this operator :: More flights under this callsign
Pilot: Kolin J. (28867)
Aircraft: BOEING 737-800
(B738)
More flights by this aircraft type
Origin: KTPA Tampa Intl
United States
Destination: KIAH G Bush Intercontinental/Houst
United States
More flights between these airports :: More routes between these airports
Route: SYKES8 SIMMR REMIS Y280 LEV LINKK1
File this flight plan on PilotEdge
Remarks:
Altitude:
(Current/Filed)
36,000ft
Speed:
(Current/Filed)
450kts
Departed: 16-May-20 07:03 PM
Arrived: 16-May-20 08:42 PM
Distance/Time
Traveled:
683nm/1:39
Distance/Time
To Go:
Arrived

Flight Plot

Page will automatically refresh every two minutes.

Flight plan parsing failed; only flown route is shown


Map Options




Map Legend


Flown Route
Filed Route
Departure Airport
Arrival Airport
Navaid (VOR, NDB)
Fix

Horizontal Profiles

Position Reports

Time Latitude Longitude Heading Altitude Ground
Speed
16-May-20 18:46 27.975268 -82.531623 306 24ft 0kts
16-May-20 18:47 27.975268 -82.531623 306 24ft 0kts
16-May-20 18:48 27.975268 -82.531623 306 24ft 0kts
16-May-20 18:49 27.975268 -82.531623 306 24ft 0kts
16-May-20 18:51 27.975268 -82.531623 306 24ft 0kts
16-May-20 18:52 27.975268 -82.531623 306 24ft 0kts
16-May-20 18:53 27.975268 -82.531623 306 24ft 0kts
16-May-20 18:54 27.975268 -82.531623 306 24ft 0kts
16-May-20 18:55 27.975170 -82.531428 298 24ft 2kts
16-May-20 18:56 27.974956 -82.531010 299 25ft 2kts
16-May-20 18:57 27.974761 -82.530665 350 25ft 1kts
16-May-20 18:58 27.974677 -82.530669 359 25ft 0kts
16-May-20 18:59 27.974677 -82.530669 359 25ft 0kts
16-May-20 19:00 27.975363 -82.530170 62 27ft 9kts
16-May-20 19:01 27.980925 -82.529673 1 27ft 30kts
16-May-20 19:02 27.985736 -82.529099 69 27ft 12kts
16-May-20 19:03 27.979985 -82.528419 181 27ft 101kts
16-May-20 19:04 27.947643 -82.533970 204 1238ft 179kts
16-May-20 19:05 27.923963 -82.574500 249 3094ft 207kts
16-May-20 19:06 27.900516 -82.627609 237 4558ft 250kts
16-May-20 19:06 27.875339 -82.671987 238 6018ft 284kts
16-May-20 19:08 27.834599 -82.745369 239 8814ft 290kts
16-May-20 19:09 27.789536 -82.826395 238 11915ft 306kts
16-May-20 19:09 27.747151 -82.902478 237 14688ft 316kts
16-May-20 19:10 27.689063 -83.006506 236 18389ft 316kts
16-May-20 19:12 27.654652 -83.158397 263 21659ft 345kts
16-May-20 19:12 27.646409 -83.280289 274 23655ft 365kts
16-May-20 19:13 27.668908 -83.435897 279 26094ft 380kts
16-May-20 19:14 27.692538 -83.591078 279 29164ft 362kts
16-May-20 19:15 27.714465 -83.736094 279 30859ft 372kts
16-May-20 19:16 27.737649 -83.890547 279 31994ft 394kts
16-May-20 19:17 27.762767 -84.059178 279 32011ft 435kts
16-May-20 19:18 27.788263 -84.241592 276 32011ft 467kts
16-May-20 19:19 27.806071 -84.429672 276 32009ft 469kts
16-May-20 19:20 27.824052 -84.615121 276 32010ft 469kts
16-May-20 19:21 27.840964 -84.791927 276 32008ft 468kts
16-May-20 19:22 27.854847 -84.938972 276 32009ft 468kts
16-May-20 19:23 27.868595 -85.086372 277 32010ft 466kts
16-May-20 19:24 27.881910 -85.230482 278 32009ft 456kts
16-May-20 19:25 27.915883 -85.369049 290 32010ft 455kts
16-May-20 19:26 27.955272 -85.506273 289 32006ft 455kts
16-May-20 19:27 27.994329 -85.643275 289 32008ft 453kts
16-May-20 19:28 28.032970 -85.779367 289 32008ft 453kts
16-May-20 19:29 28.071695 -85.916360 289 32005ft 453kts
16-May-20 19:30 28.110343 -86.053587 289 32012ft 455kts
16-May-20 19:31 28.148764 -86.190643 289 32009ft 454kts
16-May-20 19:32 28.187082 -86.327906 289 32015ft 454kts
16-May-20 19:33 28.225186 -86.465010 289 32019ft 454kts
16-May-20 19:34 28.263295 -86.602664 289 32019ft 454kts
16-May-20 19:35 28.301152 -86.740067 288 32010ft 454kts
16-May-20 19:36 28.338935 -86.877743 288 31993ft 453kts
16-May-20 19:37 28.376503 -87.015242 288 32004ft 452kts
16-May-20 19:38 28.413695 -87.152000 288 32017ft 448kts
16-May-20 19:39 28.450665 -87.288497 288 32018ft 449kts
16-May-20 19:40 28.487525 -87.425186 288 32018ft 449kts
16-May-20 19:41 28.524181 -87.561709 288 32017ft 449kts
16-May-20 19:42 28.560646 -87.698139 288 32018ft 449kts
16-May-20 19:43 28.596810 -87.834038 288 32018ft 449kts
16-May-20 19:44 28.633111 -87.971040 288 32017ft 449kts
16-May-20 19:45 28.669101 -88.107473 288 32017ft 449kts
16-May-20 19:46 28.705110 -88.244587 288 32017ft 449kts
16-May-20 19:47 28.740893 -88.381457 288 32010ft 449kts
16-May-20 19:48 28.776520 -88.518333 288 31989ft 450kts
16-May-20 19:49 28.811346 -88.652741 287 31967ft 450kts
16-May-20 19:50 28.846698 -88.789822 287 31951ft 449kts
16-May-20 19:51 28.882406 -88.928716 286 31948ft 466kts
16-May-20 19:52 28.918891 -89.071470 284 31934ft 463kts
16-May-20 19:53 28.954677 -89.212211 284 31939ft 465kts
16-May-20 19:54 28.990509 -89.353736 284 31938ft 463kts
16-May-20 19:55 29.026056 -89.494816 284 31938ft 462kts
16-May-20 19:56 29.061265 -89.635215 284 31938ft 461kts
16-May-20 19:57 29.096296 -89.775551 283 31939ft 459kts
16-May-20 19:58 29.129480 -89.909123 283 31933ft 458kts
16-May-20 19:59 29.164141 -90.049295 283 31934ft 458kts
16-May-20 20:00 29.186753 -90.190326 275 31934ft 456kts
16-May-20 20:01 29.204583 -90.333245 276 31934ft 456kts
16-May-20 20:02 29.222684 -90.476024 276 31934ft 455kts
16-May-20 20:03 29.240562 -90.618350 275 31929ft 456kts
16-May-20 20:04 29.258023 -90.758577 275 31925ft 455kts
16-May-20 20:05 29.275503 -90.900179 275 31925ft 455kts
16-May-20 20:06 29.292995 -91.043128 274 31920ft 456kts
16-May-20 20:07 29.310067 -91.183928 272 31909ft 457kts
16-May-20 20:08 29.326982 -91.328098 271 31906ft 458kts
16-May-20 20:09 29.344150 -91.472601 271 31906ft 458kts
16-May-20 20:10 29.361095 -91.616357 271 31906ft 457kts
16-May-20 20:11 29.377749 -91.758992 271 31906ft 457kts
16-May-20 20:12 29.394340 -91.902446 271 31902ft 457kts
16-May-20 20:13 29.410631 -92.044429 270 31919ft 445kts
16-May-20 20:14 29.426694 -92.186208 270 31915ft 450kts
16-May-20 20:15 29.442646 -92.328109 270 31915ft 449kts
16-May-20 20:16 29.457820 -92.469830 267 31907ft 446kts
16-May-20 20:17 29.482144 -93.008518 267 31266ft 448kts
16-May-20 20:18 29.487759 -93.147268 267 28699ft 408kts
16-May-20 20:19 29.492705 -93.274082 268 26435ft 415kts
16-May-20 20:20 29.498159 -93.412471 268 24323ft 435kts
16-May-20 20:21 29.503299 -93.547469 269 22189ft 417kts
16-May-20 20:22 29.508096 -93.677457 268 20084ft 408kts
16-May-20 20:23 29.512680 -93.805314 269 18872ft 398kts
16-May-20 20:24 29.522784 -94.101581 269 17961ft 402kts
16-May-20 20:25 29.526767 -94.219882 269 15213ft 341kts
16-May-20 20:26 29.545380 -94.320057 293 12526ft 326kts
16-May-20 20:27 29.594105 -94.407724 299 9909ft 327kts
16-May-20 20:28 29.642514 -94.490882 298 8012ft 291kts
16-May-20 20:29 29.708097 -94.572553 318 7987ft 270kts
16-May-20 20:30 29.933197 -94.734606 323 7248ft 273kts
16-May-20 20:31 29.975064 -94.796157 281 6123ft 250kts
16-May-20 20:32 29.987941 -95.021535 274 2994ft 224kts
16-May-20 20:33 29.990906 -95.081362 274 2979ft 179kts
16-May-20 20:34 29.993105 -95.127850 274 2976ft 158kts
16-May-20 20:35 29.994078 -95.165261 271 2579ft 141kts
16-May-20 20:36 29.993635 -95.200927 270 2180ft 141kts
16-May-20 20:37 29.993468 -95.234693 271 1654ft 142kts
16-May-20 20:38 29.993468 -95.267240 271 1098ft 143kts
16-May-20 20:39 29.993485 -95.299299 270 602ft 142kts
16-May-20 20:40 29.993461 -95.329579 270 109ft 139kts
16-May-20 20:41 29.992858 -95.347896 240 102ft 22kts

Navigation Log

Ident Type
Flight plan parsing failed, navigation log unavailable